Time;durP1;ratioP1;P1;durP2;ratioP2;P2;SDS_P1;SDS_P2;PMS_P1;PMS_P2;Temp;Humidity;BMP_temperature;BMP_pressure;BME280_temperature;BME280_humidity;BME280_pressure;Samples;Min_cycle;Max_cycle;Signal;HPM_P1;HPM_P2
2023/06/10 00:00:41;;;;;;;11.50;4.13;;;;;;;23.25;47.21;101270.00;5016877;27;96913;-63
2023/06/10 00:03:08;;;;;;;10.18;4.03;;;;;;;23.37;46.86;101279.81;5015721;27;100485;-63
2023/06/10 00:05:35;;;;;;;10.23;3.72;;;;;;;23.34;46.91;101274.69;5016412;27;98901;-63
2023/06/10 00:08:06;;;;;;;10.10;3.92;;;;;;;23.34;46.91;101280.06;5029086;27;101469;-62
2023/06/10 00:10:33;;;;;;;7.95;3.88;;;;;;;23.44;46.58;101278.34;5025772;27;96973;-63
2023/06/10 00:13:00;;;;;;;13.63;4.85;;;;;;;23.24;47.17;101273.69;5017737;27;98843;-62
2023/06/10 00:15:28;;;;;;;11.32;3.90;;;;;;;23.29;47.27;101281.44;5019220;27;98843;-63
2023/06/10 00:17:54;;;;;;;12.02;4.00;;;;;;;23.27;47.10;101268.06;5018525;27;98497;-66
2023/06/10 00:20:23;;;;;;;10.95;3.72;;;;;;;22.83;48.40;101270.75;5022156;27;98303;-63
2023/06/10 00:22:50;;;;;;;8.75;3.58;;;;;;;23.16;47.64;101278.84;5020820;27;97601;-63
2023/06/10 00:25:17;;;;;;;11.60;3.72;;;;;;;22.94;48.12;101268.06;5018531;27;99304;-63
2023/06/10 00:27:43;;;;;;;10.57;4.35;;;;;;;23.19;47.32;101265.13;5022017;27;98949;-64
2023/06/10 00:30:11;;;;;;;11.65;4.55;;;;;;;23.18;47.53;101271.47;5021463;27;98545;-63
2023/06/10 00:32:38;;;;;;;10.25;3.20;;;;;;;23.23;47.32;101266.59;5029456;27;98909;-63
2023/06/10 00:35:06;;;;;;;8.32;3.70;;;;;;;23.14;47.44;101261.94;5018930;27;100328;-62
2023/06/10 00:37:34;;;;;;;8.40;3.50;;;;;;;23.03;47.74;101261.94;5030306;27;99717;-63
2023/06/10 00:40:01;;;;;;;11.05;3.75;;;;;;;22.91;48.20;101268.28;5039081;27;96840;-64
2023/06/10 00:42:27;;;;;;;11.02;5.80;;;;;;;22.88;48.22;101271.22;5021254;27;99203;-63
2023/06/10 00:44:55;;;;;;;11.15;4.00;;;;;;;23.01;47.97;101267.44;5019437;27;98946;-62
2023/06/10 00:47:22;;;;;;;11.35;4.10;;;;;;;22.87;48.06;101269.50;5016223;27;98840;-62
2023/06/10 00:49:50;;;;;;;9.13;3.75;;;;;;;22.82;48.30;101271.72;5023543;27;97862;-63
2023/06/10 00:52:17;;;;;;;14.10;4.03;;;;;;;22.73;48.64;101272.41;5017717;27;97402;-63
2023/06/10 00:54:45;;;;;;;9.23;3.80;;;;;;;22.64;48.85;101257.81;5019097;27;99175;-63
2023/06/10 00:57:13;;;;;;;10.82;3.95;;;;;;;22.67;48.88;101266.50;5016753;27;98921;-62
2023/06/10 00:59:40;;;;;;;10.55;3.33;;;;;;;22.62;48.98;101271.41;5018388;27;97972;-62
2023/06/10 01:02:07;;;;;;;12.10;4.07;;;;;;;22.64;49.05;101274.81;5018669;27;99220;-64
2023/06/10 01:04:42;;;;;;;9.60;3.20;;;;;;;22.56;49.27;101271.03;5016189;27;98977;-62
2023/06/10 01:07:18;;;;;;;8.23;3.70;;;;;;;22.61;49.35;101276.91;5009289;27;98811;-63
2023/06/10 01:10:00;;;;;;;12.57;3.80;;;;;;;22.52;49.13;101265.00;5037223;27;97497;-63
2023/06/10 01:12:33;;;;;;;12.23;3.88;;;;;;;22.72;48.73;101278.75;5019444;27;97216;-62
2023/06/10 01:15:01;;;;;;;8.70;3.50;;;;;;;22.84;48.18;101278.69;5017744;27;99946;-63
2023/06/10 01:17:27;;;;;;;13.75;3.78;;;;;;;22.71;48.82;101279.75;5017230;27;100849;-64
2023/06/10 01:19:56;;;;;;;10.02;4.03;;;;;;;22.61;49.06;101280.44;5017180;27;98435;-62
2023/06/10 01:22:25;;;;;;;9.43;3.78;;;;;;;22.53;49.15;101280.19;5029948;27;98679;-62
2023/06/10 01:24:52;;;;;;;10.05;3.90;;;;;;;22.55;49.21;101286.31;5014308;27;99567;-62
2023/06/10 01:27:22;;;;;;;15.60;4.35;;;;;;;22.37;49.69;101293.13;5021099;27;99335;-63
2023/06/10 01:29:56;;;;;;;10.43;3.75;;;;;;;22.45;49.39;101290.69;5020944;27;97663;-63
2023/06/10 01:32:27;;;;;;;8.68;3.03;;;;;;;22.02;50.71;101281.44;5033055;27;96840;-62
2023/06/10 01:34:55;;;;;;;10.13;3.90;;;;;;;22.10;50.57;101285.28;5028967;27;99590;-63
2023/06/10 01:37:27;;;;;;;11.05;4.00;;;;;;;22.03;50.89;101285.88;5022361;27;99207;-63
2023/06/10 01:39:58;;;;;;;7.40;3.92;;;;;;;22.03;50.88;101289.41;5031310;27;97002;-62
2023/06/10 01:42:25;;;;;;;8.38;3.83;;;;;;;22.19;50.27;101281.88;5014948;27;98751;-62
2023/06/10 01:44:51;;;;;;;9.07;4.13;;;;;;;22.22;50.30;101289.75;5016199;27;98988;-63
2023/06/10 01:47:18;;;;;;;10.95;3.55;;;;;;;22.19;50.35;101283.72;5008071;27;100677;-62
2023/06/10 01:49:44;;;;;;;11.35;3.50;;;;;;;22.02;50.75;101289.53;5023288;27;97394;-62
2023/06/10 01:52:10;;;;;;;13.13;4.70;;;;;;;22.24;50.14;101286.94;5010961;27;99255;-62
2023/06/10 01:54:38;;;;;;;9.65;3.63;;;;;;;21.99;50.82;101289.75;5027848;27;99238;-63
2023/06/10 01:57:06;;;;;;;14.88;4.45;;;;;;;22.06;50.67;101291.00;5019350;27;99116;-62
2023/06/10 01:59:32;;;;;;;13.00;3.60;;;;;;;21.85;51.30;101283.53;5020783;27;98854;-63
2023/06/10 02:01:58;;;;;;;12.65;3.83;;;;;;;21.85;51.30;101291.63;5020890;27;97591;-63
2023/06/10 02:04:25;;;;;;;10.48;4.15;;;;;;;22.14;50.43;101291.28;5021231;27;98982;-63
2023/06/10 02:06:51;;;;;;;8.68;3.80;;;;;;;22.09;50.76;101293.47;5023122;27;98977;-65
2023/06/10 02:09:18;;;;;;;10.88;4.00;;;;;;;22.07;50.62;101290.03;5029420;27;97536;-63
2023/06/10 02:11:46;;;;;;;11.68;4.03;;;;;;;22.16;50.60;101297.44;5026199;27;97114;-66
2023/06/10 02:14:12;;;;;;;13.85;3.67;;;;;;;22.06;50.83;101288.31;5016620;27;99087;-66
2023/06/10 02:16:39;;;;;;;8.38;3.75;;;;;;;22.00;50.97;101289.63;5021760;27;102219;-66
2023/06/10 02:19:06;;;;;;;9.95;3.83;;;;;;;22.08;50.40;101291.75;5001869;27;100251;-65
2023/06/10 02:21:34;;;;;;;15.68;4.95;;;;;;;21.91;51.25;101303.75;5016366;27;99424;-66
2023/06/10 02:24:00;;;;;;;11.55;4.13;;;;;;;21.96;51.13;101304.28;5019526;27;101048;-66
2023/06/10 02:26:27;;;;;;;12.02;4.10;;;;;;;21.94;51.02;101299.94;5016275;27;99257;-66
2023/06/10 02:28:54;;;;;;;14.23;4.40;;;;;;;21.73;51.66;101305.09;5020622;27;98170;-66
2023/06/10 02:31:21;;;;;;;8.48;3.88;;;;;;;21.75;51.54;101295.09;5015386;27;97077;-67
2023/06/10 02:33:47;;;;;;;9.18;3.75;;;;;;;21.70;51.90;101300.81;5027256;27;99263;-66
2023/06/10 02:36:15;;;;;;;8.98;3.72;;;;;;;21.67;52.00;101295.63;5024935;27;99175;-66
2023/06/10 02:38:41;;;;;;;9.48;4.20;;;;;;;21.54;52.39;101296.63;5028884;27;96749;-67
2023/06/10 02:41:08;;;;;;;12.82;4.15;;;;;;;21.82;51.42;101297.22;5031477;27;96764;-67
2023/06/10 02:43:34;;;;;;;11.07;4.18;;;;;;;21.83;51.50;101298.94;5008120;27;99067;-67
2023/06/10 02:46:02;;;;;;;10.95;4.20;;;;;;;21.85;51.42;101307.75;5005866;27;99554;-66
2023/06/10 02:48:29;;;;;;;11.77;4.28;;;;;;;21.75;51.56;101298.63;5011522;27;99096;-65
2023/06/10 02:50:55;;;;;;;12.32;4.55;;;;;;;21.82;51.47;101289.13;5015548;27;97032;-65
2023/06/10 02:53:24;;;;;;;17.60;3.83;;;;;;;21.83;51.43;101307.00;5009756;27;98974;-66
2023/06/10 02:55:51;;;;;;;12.07;3.90;;;;;;;21.77;51.37;101301.22;5008749;27;99185;-66
2023/06/10 02:58:17;;;;;;;7.80;3.38;;;;;;;21.92;51.20;101299.22;5010340;27;98855;-66
2023/06/10 03:00:44;;;;;;;12.18;4.25;;;;;;;21.70;51.49;101299.94;5016164;27;98612;-66
2023/06/10 03:03:12;;;;;;;10.63;5.05;;;;;;;21.81;51.52;101300.88;5020986;27;98937;-67
2023/06/10 03:05:40;;;;;;;9.30;3.53;;;;;;;21.77;51.36;101307.47;5013647;27;98763;-65
2023/06/10 03:08:06;;;;;;;16.50;4.18;;;;;;;21.87;51.51;101304.94;5006207;27;98863;-67
2023/06/10 03:10:33;;;;;;;13.70;4.68;;;;;;;21.68;51.75;101305.44;5014123;27;99446;-66
2023/06/10 03:12:59;;;;;;;19.15;5.30;;;;;;;21.88;51.31;101306.66;5024082;27;99260;-67
2023/06/10 03:15:25;;;;;;;16.75;4.38;;;;;;;21.87;51.42;101308.47;5010382;27;98853;-66
2023/06/10 03:17:52;;;;;;;12.35;4.63;;;;;;;21.91;51.10;101305.59;5005968;27;98658;-66
2023/06/10 03:20:21;;;;;;;13.02;4.30;;;;;;;21.97;51.07;101306.03;5017987;27;97784;-66
2023/06/10 03:22:47;;;;;;;13.57;4.13;;;;;;;21.87;51.23;101308.47;5014986;27;99729;-66
2023/06/10 03:25:17;;;;;;;14.40;5.05;;;;;;;21.84;51.46;101308.72;5015955;27;99157;-66
2023/06/10 03:27:44;;;;;;;16.55;4.45;;;;;;;21.81;51.42;101302.69;5012673;27;97797;-66
2023/06/10 03:30:11;;;;;;;11.02;4.30;;;;;;;21.85;51.28;101313.13;5019851;27;96937;-66
2023/06/10 03:32:38;;;;;;;8.27;4.00;;;;;;;21.96;51.23;101314.19;5018470;27;99250;-66
2023/06/10 03:35:05;;;;;;;9.05;4.18;;;;;;;21.85;51.21;101307.75;5017167;27;99279;-67
2023/06/10 03:37:33;;;;;;;10.80;4.53;;;;;;;21.88;51.22;101312.91;5027048;27;98208;-67
2023/06/10 03:39:59;;;;;;;11.70;4.38;;;;;;;22.04;50.80;101315.34;5039513;27;97211;-67
2023/06/10 03:42:25;;;;;;;15.30;4.47;;;;;;;21.96;50.98;101315.06;5024517;27;102043;-67
2023/06/10 03:44:52;;;;;;;13.55;4.45;;;;;;;22.13;50.66;101322.72;5017477;27;99105;-66
2023/06/10 03:47:18;;;;;;;12.55;4.65;;;;;;;22.13;50.69;101316.47;5023808;27;98716;-66
2023/06/10 03:49:45;;;;;;;11.52;4.95;;;;;;;22.11;50.61;101315.75;5016899;27;98630;-67
2023/06/10 03:52:11;;;;;;;12.18;4.40;;;;;;;22.13;50.67;101317.34;5018646;27;99197;-67
2023/06/10 03:54:39;;;;;;;14.20;4.97;;;;;;;22.13;50.51;101327.25;5009030;27;101080;-66
2023/06/10 03:57:06;;;;;;;10.80;4.25;;;;;;;22.18;50.35;101319.72;5014038;27;97765;-68
2023/06/10 03:59:33;;;;;;;14.38;5.07;;;;;;;22.10;50.45;101325.66;5016131;27;98635;-67
2023/06/10 04:02:00;;;;;;;12.43;4.93;;;;;;;22.08;50.60;101319.53;5017428;27;99132;-66
2023/06/10 04:04:26;;;;;;;11.63;4.35;;;;;;;22.00;50.82;101327.31;5013732;27;99257;-66
2023/06/10 04:06:53;;;;;;;12.98;4.63;;;;;;;22.15;50.46;101319.94;5018907;27;96919;-66
2023/06/10 04:09:19;;;;;;;11.63;4.88;;;;;;;22.14;50.30;101320.91;5038504;27;98353;-67
2023/06/10 04:11:48;;;;;;;11.35;4.85;;;;;;;22.28;50.01;101326.09;5022729;27;98325;-66
2023/06/10 04:14:14;;;;;;;9.40;4.40;;;;;;;22.20;50.36;101331.19;5018901;27;98988;-66
2023/06/10 04:16:42;;;;;;;14.15;5.10;;;;;;;22.28;50.04;101334.19;5020929;27;97122;-66
2023/06/10 04:19:08;;;;;;;8.60;4.13;;;;;;;22.31;49.97;101328.59;5009861;27;98519;-67
2023/06/10 04:21:35;;;;;;;10.18;4.88;;;;;;;22.33;49.76;101334.69;5005052;27;100423;-67
2023/06/10 04:24:02;;;;;;;10.20;4.32;;;;;;;22.32;49.93;101324.88;5008284;27;101017;-67
2023/06/10 04:26:29;;;;;;;11.48;4.50;;;;;;;22.25;50.00;101331.75;5017626;27;97873;-66
2023/06/10 04:28:56;;;;;;;14.32;4.95;;;;;;;22.47;49.57;101326.44;5005578;27;97303;-66
2023/06/10 04:31:23;;;;;;;11.27;4.75;;;;;;;22.54;49.23;101325.00;4999341;27;101072;-67
2023/06/10 04:33:49;;;;;;;10.10;4.72;;;;;;;22.46;49.39;101326.53;5011672;27;99463;-66
2023/06/10 04:36:16;;;;;;;9.82;5.13;;;;;;;22.41;49.69;101331.44;5005420;27;99000;-68
2023/06/10 04:38:42;;;;;;;14.43;5.95;;;;;;;22.71;48.84;101329.06;5000374;27;98678;-67
2023/06/10 04:41:09;;;;;;;14.63;5.72;;;;;;;22.52;49.37;101335.00;4998185;27;101487;-66
2023/06/10 04:43:35;;;;;;;18.52;5.13;;;;;;;22.36;49.90;101337.16;4995098;27;99331;-66
2023/06/10 04:46:03;;;;;;;14.50;5.00;;;;;;;22.58;49.02;101347.16;5000964;27;98672;-66
2023/06/10 04:48:30;;;;;;;11.77;5.45;;;;;;;22.53;49.49;101347.50;4998688;27;100892;-65
2023/06/10 04:50:57;;;;;;;14.30;5.25;;;;;;;22.55;49.23;101347.41;5004859;27;99048;-66
2023/06/10 04:53:23;;;;;;;12.65;4.50;;;;;;;22.51;49.31;101344.06;5018022;27;98976;-65
2023/06/10 04:55:49;;;;;;;11.38;5.13;;;;;;;22.53;49.43;101344.81;5013923;27;97249;-66
2023/06/10 04:58:16;;;;;;;12.52;5.43;;;;;;;22.54;49.30;101351.94;5012725;27;97616;-67
2023/06/10 05:00:43;;;;;;;14.73;4.93;;;;;;;22.61;49.10;101349.63;5015839;27;100904;-66
2023/06/10 05:03:11;;;;;;;12.63;5.57;;;;;;;22.37;49.96;101356.88;5023497;27;99290;-66
2023/06/10 05:05:37;;;;;;;10.73;5.53;;;;;;;22.55;49.29;101361.72;5020993;27;97563;-67
2023/06/10 05:08:04;;;;;;;11.50;5.43;;;;;;;22.58;49.33;101361.47;5023373;27;97366;-67
2023/06/10 05:10:34;;;;;;;12.00;4.95;;;;;;;22.57;49.54;101362.47;5041021;27;97697;-67
2023/06/10 05:13:08;;;;;;;11.60;4.82;;;;;;;22.70;49.02;101366.94;5032216;27;98157;-68
2023/06/10 05:15:40;;;;;;;9.90;5.25;;;;;;;22.62;49.15;101356.72;5023764;27;99175;-68
2023/06/10 05:18:12;;;;;;;12.68;4.97;;;;;;;22.72;48.83;101356.88;5022340;27;97697;-67
2023/06/10 05:20:53;;;;;;;14.20;5.18;;;;;;;22.68;49.13;101361.66;5022133;27;97646;-67
2023/06/10 05:23:22;;;;;;;13.50;5.05;;;;;;;22.76;48.80;101364.66;5015746;27;101495;-67
2023/06/10 05:25:49;;;;;;;10.10;4.85;;;;;;;22.86;48.64;101365.66;5014716;27;98356;-69
2023/06/10 05:28:19;;;;;;;11.85;4.85;;;;;;;22.82;48.72;101379.50;5016904;27;98366;-67
2023/06/10 05:30:47;;;;;;;13.15;5.25;;;;;;;22.80;48.79;101371.50;5014365;27;99006;-66
2023/06/10 05:33:17;;;;;;;14.15;4.63;;;;;;;22.92;48.50;101369.69;5014779;27;98535;-67
2023/06/10 05:35:43;;;;;;;11.27;4.47;;;;;;;23.23;47.85;101363.66;5013662;27;98972;-67
2023/06/10 05:38:11;;;;;;;11.75;4.65;;;;;;;23.37;47.43;101373.34;5015474;27;98865;-67
2023/06/10 05:40:41;;;;;;;15.52;5.32;;;;;;;23.56;47.13;101372.78;5037227;27;98910;-68
2023/06/10 05:43:16;;;;;;;11.52;5.13;;;;;;;23.88;46.16;101370.19;5029899;27;96907;-67
2023/06/10 05:45:50;;;;;;;16.17;5.77;;;;;;;23.83;46.10;101374.09;5015964;27;99275;-70
2023/06/10 05:48:19;;;;;;;9.77;4.93;;;;;;;23.77;46.27;101361.09;5016979;27;96940;-67
2023/06/10 05:50:48;;;;;;;10.60;5.05;;;;;;;23.95;46.18;101366.88;5008688;27;98460;-66
2023/06/10 05:53:15;;;;;;;17.17;5.18;;;;;;;24.32;45.21;101366.53;4998287;27;100202;-67
2023/06/10 05:55:41;;;;;;;14.20;5.97;;;;;;;24.50;44.71;101371.25;4997693;27;99118;-67
2023/06/10 05:58:07;;;;;;;10.02;4.53;;;;;;;24.71;44.52;101371.31;5013280;27;99014;-67
2023/06/10 06:00:34;;;;;;;13.02;5.07;;;;;;;24.78;44.17;101375.19;5013572;27;99265;-66
2023/06/10 06:03:00;;;;;;;13.75;4.82;;;;;;;25.00;43.74;101375.13;5012158;27;98793;-66
2023/06/10 06:05:34;;;;;;;12.18;5.55;;;;;;;25.20;42.92;101375.25;5013731;27;97495;-66
2023/06/10 06:08:01;;;;;;;13.00;4.70;;;;;;;25.32;43.11;101377.72;5010518;27;97623;-65
2023/06/10 06:10:27;;;;;;;10.85;5.22;;;;;;;25.10;43.42;101377.88;5024073;27;101859;-66
2023/06/10 06:12:53;;;;;;;12.88;5.10;;;;;;;25.25;43.34;101370.28;5021212;27;98911;-67
2023/06/10 06:15:20;;;;;;;13.20;4.63;;;;;;;25.04;43.77;101378.41;5011085;27;102335;-69
2023/06/10 06:17:46;;;;;;;12.77;5.38;;;;;;;25.21;43.66;101385.03;5017528;27;99115;-67
2023/06/10 06:20:13;;;;;;;28.35;12.40;;;;;;;25.34;43.32;101374.88;5018312;27;99042;-67
2023/06/10 06:22:40;;;;;;;11.73;5.20;;;;;;;25.51;42.87;101382.38;5016261;27;98948;-66
2023/06/10 06:25:07;;;;;;;10.98;5.28;;;;;;;25.49;43.07;101381.66;5015238;27;97528;-66
2023/06/10 06:27:34;;;;;;;11.93;4.90;;;;;;;25.70;42.29;101387.91;5015938;27;98741;-67
2023/06/10 06:30:00;;;;;;;13.77;5.07;;;;;;;25.77;42.13;101389.06;5017029;27;98929;-68
2023/06/10 06:32:27;;;;;;;10.40;5.18;;;;;;;25.85;42.42;101395.66;5018545;27;99150;-68
2023/06/10 06:34:54;;;;;;;15.10;5.28;;;;;;;25.92;41.95;101391.41;5015918;27;99013;-67
2023/06/10 06:37:21;;;;;;;12.35;5.10;;;;;;;26.20;41.33;101391.47;5014099;27;99042;-67
2023/06/10 06:39:49;;;;;;;13.40;5.68;;;;;;;26.60;40.54;101398.69;5011731;27;99037;-67
2023/06/10 06:42:16;;;;;;;9.50;4.82;;;;;;;26.50;40.74;101400.53;5014739;27;99451;-67
2023/06/10 06:44:43;;;;;;;9.38;5.03;;;;;;;26.65;40.39;101400.97;5010460;27;99215;-68
2023/06/10 06:47:09;;;;;;;11.65;5.05;;;;;;;26.50;40.63;101398.69;5015976;27;97775;-68
2023/06/10 06:49:36;;;;;;;12.13;5.60;;;;;;;26.28;40.82;101404.34;5012792;27;99159;-68
2023/06/10 06:52:03;;;;;;;10.88;5.28;;;;;;;26.27;40.97;101408.03;5014778;27;99303;-68
2023/06/10 06:54:29;;;;;;;17.17;5.38;;;;;;;26.24;41.05;101408.34;5011439;27;97825;-67
2023/06/10 06:56:57;;;;;;;13.73;5.50;;;;;;;26.30;41.09;101407.78;5016005;27;97805;-68
2023/06/10 06:59:25;;;;;;;15.27;5.90;;;;;;;26.20;41.02;101418.56;5010954;27;99368;-69
2023/06/10 07:01:53;;;;;;;10.38;5.47;;;;;;;26.30;40.92;101413.19;5011190;27;100185;-68
2023/06/10 07:04:21;;;;;;;8.32;4.68;;;;;;;26.41;40.62;101412.22;5012723;27;98914;-66
2023/06/10 07:06:48;;;;;;;12.13;5.45;;;;;;;26.48;40.48;101416.06;5006015;27;97444;-66
2023/06/10 07:09:14;;;;;;;7.57;5.18;;;;;;;26.93;39.62;101416.41;5010369;27;99538;-67
2023/06/10 07:11:40;;;;;;;12.98;5.20;;;;;;;26.82;39.60;101419.22;5009214;27;98836;-67
2023/06/10 07:14:08;;;;;;;8.98;4.65;;;;;;;27.02;39.22;101426.41;5010858;27;97672;-67
2023/06/10 07:16:35;;;;;;;12.20;6.13;;;;;;;27.57;38.67;101426.59;5009517;27;98870;-67
2023/06/10 07:19:01;;;;;;;8.52;5.15;;;;;;;28.02;37.32;101421.28;5009943;27;99304;-66
2023/06/10 07:21:28;;;;;;;10.15;5.65;;;;;;;28.09;37.20;101419.66;5012266;27;100203;-67
2023/06/10 07:23:54;;;;;;;10.57;4.90;;;;;;;28.70;36.25;101425.25;5012933;27;98855;-67
2023/06/10 07:26:23;;;;;;;8.40;5.22;;;;;;;29.06;35.17;101420.69;5009306;27;97230;-67
2023/06/10 07:28:49;;;;;;;12.32;5.60;;;;;;;29.04;35.34;101428.16;5009407;27;99578;-67
2023/06/10 07:31:17;;;;;;;9.45;5.15;;;;;;;29.34;34.51;101429.63;5011148;27;101258;-66
2023/06/10 07:33:44;;;;;;;11.15;5.18;;;;;;;29.28;34.65;101433.78;5011688;27;98904;-66
2023/06/10 07:36:10;;;;;;;12.88;5.43;;;;;;;29.05;35.03;101435.31;5009680;27;98730;-66
2023/06/10 07:38:37;;;;;;;12.35;5.22;;;;;;;29.28;35.20;101441.94;5009808;27;101199;-66
2023/06/10 07:41:03;;;;;;;11.32;5.00;;;;;;;29.68;34.36;101430.50;5010837;27;97592;-66
2023/06/10 07:43:30;;;;;;;9.55;5.05;;;;;;;29.41;34.57;101438.84;5006855;27;98237;-67
2023/06/10 07:45:56;;;;;;;11.05;5.45;;;;;;;29.41;34.52;101429.81;5009578;27;97064;-66
2023/06/10 07:48:24;;;;;;;11.85;5.35;;;;;;;29.45;34.45;101432.06;5015321;27;99527;-66
2023/06/10 07:50:50;;;;;;;13.70;5.80;;;;;;;29.30;34.54;101436.34;5011203;27;99203;-66
2023/06/10 07:53:17;;;;;;;14.43;5.85;;;;;;;29.33;34.77;101438.78;5011658;27;97801;-67
2023/06/10 07:55:43;;;;;;;12.93;5.30;;;;;;;28.99;35.69;101437.81;5009292;27;99211;-67
2023/06/10 07:58:10;;;;;;;15.50;6.22;;;;;;;28.31;36.93;101435.56;5012976;27;99173;-67
2023/06/10 08:00:36;;;;;;;11.50;5.88;;;;;;;28.35;36.54;101431.56;5008530;27;99353;-63
2023/06/10 08:03:03;;;;;;;9.60;5.88;;;;;;;28.28;37.06;101437.75;5009609;27;98884;-62
2023/06/10 08:05:31;;;;;;;10.75;5.18;;;;;;;28.20;37.36;101426.78;5014455;27;99031;-63
2023/06/10 08:07:58;;;;;;;17.30;6.18;;;;;;;27.97;37.67;101432.56;5009768;27;99104;-63
2023/06/10 08:10:24;;;;;;;12.05;4.95;;;;;;;27.91;38.04;101435.88;5009795;27;98993;-63
2023/06/10 08:12:50;;;;;;;10.98;5.65;;;;;;;28.08;37.67;101443.25;5010670;27;97896;-63
2023/06/10 08:15:17;;;;;;;10.45;6.05;;;;;;;28.20;37.46;101440.34;5013901;27;97784;-62
2023/06/10 08:17:44;;;;;;;14.98;6.00;;;;;;;28.09;37.56;101444.13;5009535;27;99063;-63
2023/06/10 08:20:11;;;;;;;12.90;6.40;;;;;;;28.22;37.35;101443.78;5011342;27;99136;-63
2023/06/10 08:22:38;;;;;;;12.98;5.90;;;;;;;28.41;36.96;101446.38;5014626;27;97310;-63
2023/06/10 08:25:06;;;;;;;10.00;5.55;;;;;;;28.83;36.28;101447.53;5016136;27;97754;-63
2023/06/10 08:27:32;;;;;;;12.80;6.10;;;;;;;29.22;35.55;101448.03;5025206;27;99206;-63
2023/06/10 08:30:00;;;;;;;17.52;6.50;;;;;;;29.41;34.91;101455.16;5013459;27;99242;-64
2023/06/10 08:32:26;;;;;;;10.65;6.13;;;;;;;29.27;35.24;101445.72;5013799;27;97700;-66
2023/06/10 08:34:53;;;;;;;10.02;5.22;;;;;;;29.49;34.81;101449.78;5023509;27;98566;-66
2023/06/10 08:37:22;;;;;;;8.68;5.10;;;;;;;29.73;34.67;101460.81;5020980;27;98959;-66
2023/06/10 08:39:59;;;;;;;8.85;5.60;;;;;;;29.99;34.40;101457.25;5018981;27;98157;-67
2023/06/10 08:42:29;;;;;;;9.75;5.72;;;;;;;29.89;34.33;101459.22;5019822;27;98540;-67
2023/06/10 08:44:56;;;;;;;6.97;4.63;;;;;;;29.58;34.57;101457.00;5017332;27;97672;-67
2023/06/10 08:47:24;;;;;;;15.25;5.85;;;;;;;29.92;34.41;101461.66;5023028;27;100414;-66
2023/06/10 08:49:52;;;;;;;14.00;5.88;;;;;;;30.12;33.66;101462.25;5028005;27;98809;-67
2023/06/10 08:52:20;;;;;;;16.20;5.85;;;;;;;30.18;33.95;101459.72;5021685;27;97826;-67
2023/06/10 08:54:52;;;;;;;19.50;5.93;;;;;;;30.29;33.94;101461.28;5020460;27;97792;-67
2023/06/10 08:57:21;;;;;;;10.02;5.72;;;;;;;30.44;33.48;101456.91;5018502;27;98950;-68
2023/06/10 08:59:48;;;;;;;12.00;5.45;;;;;;;30.44;33.58;101460.50;5019899;27;97758;-66
2023/06/10 09:02:19;;;;;;;11.20;5.72;;;;;;;30.42;33.57;101459.81;5017571;27;97834;-67
2023/06/10 09:04:47;;;;;;;14.07;5.90;;;;;;;30.09;33.68;101460.69;5019731;27;98483;-68
2023/06/10 09:07:14;;;;;;;14.95;6.93;;;;;;;30.24;33.54;101464.53;5023346;27;98836;-67
2023/06/10 09:09:43;;;;;;;9.68;6.50;;;;;;;30.05;33.79;101456.63;5018975;27;99428;-67
2023/06/10 09:12:10;;;;;;;8.93;5.88;;;;;;;30.39;33.51;101465.56;5013696;27;99730;-67
2023/06/10 09:14:38;;;;;;;9.07;5.30;;;;;;;30.39;33.68;101462.03;5021310;27;98849;-67
2023/06/10 09:17:08;;;;;;;12.18;5.00;;;;;;;30.04;33.64;101461.19;5016662;27;99049;-67
2023/06/10 09:19:36;;;;;;;14.90;6.07;;;;;;;29.79;34.16;101459.34;5017731;27;98976;-63
2023/06/10 09:22:02;;;;;;;12.60;5.70;;;;;;;30.09;33.98;101460.69;5018206;27;97548;-64
2023/06/10 09:24:29;;;;;;;13.55;6.35;;;;;;;29.82;34.58;101463.59;5015902;27;99056;-64
2023/06/10 09:27:03;;;;;;;14.88;5.53;;;;;;;29.90;34.61;101459.06;5012579;27;99635;-63
2023/06/10 09:29:32;;;;;;;14.07;5.72;;;;;;;29.84;34.55;101462.44;5015605;27;99350;-64
2023/06/10 09:32:01;;;;;;;13.48;5.00;;;;;;;29.77;34.68;101472.25;5018259;27;97666;-65
2023/06/10 09:34:29;;;;;;;9.48;5.95;;;;;;;29.65;34.66;101463.50;5017041;27;97945;-63
2023/06/10 09:36:55;;;;;;;17.70;5.63;;;;;;;29.73;34.96;101471.72;5017913;27;101051;-63
2023/06/10 09:39:22;;;;;;;13.68;5.72;;;;;;;29.73;34.32;101470.88;5027003;27;99151;-64
2023/06/10 09:41:48;;;;;;;12.13;5.15;;;;;;;29.60;34.59;101471.28;5029128;27;96902;-64
2023/06/10 09:44:16;;;;;;;11.75;5.47;;;;;;;29.85;34.60;101463.28;5028558;27;100160;-63
2023/06/10 09:46:46;;;;;;;17.08;5.53;;;;;;;29.83;34.43;101471.63;5026097;27;99315;-63
2023/06/10 09:49:13;;;;;;;9.23;5.07;;;;;;;29.89;34.86;101481.00;5032211;27;98815;-62
2023/06/10 09:51:50;;;;;;;10.43;6.28;;;;;;;29.79;34.83;101478.41;5026335;27;96928;-63
2023/06/10 09:54:17;;;;;;;10.88;5.55;;;;;;;30.05;34.29;101478.41;5030374;27;97408;-64
2023/06/10 09:56:43;;;;;;;15.35;5.45;;;;;;;29.69;34.67;101480.38;5028511;27;99331;-65
2023/06/10 09:59:09;;;;;;;18.00;5.40;;;;;;;29.68;34.60;101471.34;5032412;27;98933;-63
2023/06/10 10:01:36;;;;;;;17.33;5.60;;;;;;;29.54;35.00;101476.53;5032288;27;98952;-63
2023/06/10 10:04:04;;;;;;;13.88;5.93;;;;;;;29.53;34.99;101474.84;5034888;27;97524;-64
2023/06/10 10:06:32;;;;;;;10.68;4.95;;;;;;;29.55;35.49;101473.66;5033628;27;99266;-64
2023/06/10 10:08:59;;;;;;;10.85;6.00;;;;;;;29.43;35.27;101474.06;5026622;27;99443;-63
2023/06/10 10:11:26;;;;;;;12.55;5.57;;;;;;;29.48;35.43;101471.72;5030384;27;96797;-62
2023/06/10 10:13:53;;;;;;;9.77;5.32;;;;;;;29.42;34.93;101470.50;5025613;27;99988;-63
2023/06/10 10:16:22;;;;;;;11.73;5.78;;;;;;;29.36;35.33;101468.41;5025786;27;101742;-64
2023/06/10 10:18:54;;;;;;;15.93;5.80;;;;;;;29.11;36.14;101471.91;5020597;27;99022;-64
2023/06/10 10:21:24;;;;;;;12.13;5.50;;;;;;;29.12;36.03;101476.34;5012345;27;98116;-63
2023/06/10 10:23:58;;;;;;;14.02;5.38;;;;;;;29.28;36.35;101465.59;5011997;27;97798;-63
2023/06/10 10:26:27;;;;;;;8.07;4.97;;;;;;;29.49;35.37;101465.25;5016560;27;99297;-64
2023/06/10 10:29:02;;;;;;;10.23;5.35;;;;;;;29.48;35.35;101469.84;5026985;27;97456;-64
2023/06/10 10:31:33;;;;;;;10.13;5.45;;;;;;;29.41;35.48;101471.50;5023848;27;97907;-63
2023/06/10 10:34:01;;;;;;;10.52;5.50;;;;;;;29.23;35.55;101470.66;5033853;27;97403;-62
2023/06/10 10:36:28;;;;;;;9.68;5.22;;;;;;;29.44;35.06;101467.63;5020229;27;99388;-65
2023/06/10 10:38:58;;;;;;;7.65;4.53;;;;;;;29.38;35.07;101470.97;5031743;27;99488;-63
2023/06/10 10:41:26;;;;;;;11.55;5.25;;;;;;;29.39;34.90;101465.38;5030759;27;97001;-63
2023/06/10 10:43:56;;;;;;;10.63;6.82;;;;;;;29.40;34.00;101468.97;5028958;27;99307;-63
2023/06/10 10:46:23;;;;;;;9.85;4.80;;;;;;;29.34;33.58;101467.72;5028864;27;99519;-64
2023/06/10 10:48:54;;;;;;;6.05;3.97;;;;;;;29.49;32.43;101463.41;5023055;27;99675;-64
2023/06/10 10:51:21;;;;;;;9.70;6.75;;;;;;;29.42;32.68;101459.59;5014724;27;97702;-62
2023/06/10 10:54:13;;;;;;;13.30;3.50;;;;;;;29.19;35.97;101455.66;5012319;27;96961;-64
2023/06/10 10:56:40;;;;;;;6.13;3.65;;;;;;;29.11;35.84;101442.84;5011226;27;99190;-63
2023/06/10 10:59:07;;;;;;;7.95;5.68;;;;;;;29.24;36.51;101442.44;5010850;27;99265;-63
2023/06/10 11:01:41;;;;;;;8.77;3.88;;;;;;;29.06;36.94;101439.75;5012910;27;98522;-63
2023/06/10 11:04:08;;;;;;;10.50;3.80;;;;;;;29.43;35.61;101434.09;5011726;27;97829;-64
2023/06/10 11:06:35;;;;;;;7.28;3.58;;;;;;;29.59;35.76;101425.19;5015296;27;99081;-64
2023/06/10 11:09:22;;;;;;;5.13;3.63;;;;;;;29.73;35.12;101422.69;5018036;27;98800;-63
2023/06/10 11:11:51;;;;;;;5.43;3.70;;;;;;;30.08;35.40;101420.84;5018641;27;99264;-64
2023/06/10 11:14:28;;;;;;;8.00;5.93;;;;;;;30.42;34.53;101410.72;5013933;27;98285;-65
2023/06/10 11:16:57;;;;;;;7.43;4.30;;;;;;;30.68;33.54;101413.34;5011967;27;99299;-64
2023/06/10 11:19:34;;;;;;;7.35;4.60;;;;;;;31.15;33.35;101408.09;5016583;27;98762;-64
2023/06/10 11:22:01;;;;;;;4.68;3.90;;;;;;;31.44;32.33;101415.72;5019092;27;96828;-62